Time;durP1;ratioP1;P1;durP2;ratioP2;P2;SDS_P1;SDS_P2;PMS_P1;PMS_P2;Temp;Humidity;BMP_temperature;BMP_pressure;BME280_temperature;BME280_humidity;BME280_pressure;Samples;Min_cycle;Max_cycle;Signal;HPM_P1;HPM_P2
2023/02/05 00:01:24;;;;;;;10.43;5.65;;;;;;;-0.21;67.19;101813.66;5097356;27;20046;-66
2023/02/05 00:03:49;;;;;;;9.85;5.10;;;;;;;-0.21;67.00;101816.28;5090675;28;20046;-67
2023/02/05 00:06:15;;;;;;;8.18;5.25;;;;;;;-0.17;67.21;101820.59;5093279;27;20050;-66
2023/02/05 00:08:40;;;;;;;9.20;5.28;;;;;;;-0.27;67.24;101811.13;5087071;28;20035;-66
2023/02/05 00:11:08;;;;;;;11.50;5.53;;;;;;;-0.12;67.26;101831.94;5101208;27;20019;-67
2023/02/05 00:13:41;;;;;;;10.40;5.45;;;;;;;-0.19;67.49;101807.44;5111254;28;20031;-66
2023/02/05 00:16:15;;;;;;;10.25;5.70;;;;;;;-0.23;67.37;101808.41;5109083;27;20071;-67
2023/02/05 00:18:41;;;;;;;12.57;5.90;;;;;;;-0.28;67.46;101805.00;5085542;28;20023;-67
2023/02/05 00:21:06;;;;;;;12.52;5.35;;;;;;;-0.26;67.87;101815.50;5104133;27;20527;-72
2023/02/05 00:23:32;;;;;;;11.82;5.90;;;;;;;-0.09;67.90;101843.25;5105037;27;20019;-72
2023/02/05 00:25:58;;;;;;;13.20;6.47;;;;;;;-0.16;68.15;101840.81;5122543;27;20020;-72
2023/02/05 00:28:23;;;;;;;13.85;6.90;;;;;;;-0.21;68.26;101822.44;5107385;28;20039;-71
2023/02/05 00:30:49;;;;;;;13.25;6.20;;;;;;;-0.11;68.70;101849.47;5104476;28;20363;-72
2023/02/05 00:33:14;;;;;;;11.63;6.32;;;;;;;-0.11;68.50;101845.09;5097906;27;20126;-72
2023/02/05 00:35:42;;;;;;;11.13;5.68;;;;;;;-0.01;68.14;101853.66;5090505;28;20130;-72
2023/02/05 00:38:07;;;;;;;10.40;5.82;;;;;;;-0.04;68.51;101851.97;5086598;28;20015;-73
2023/02/05 00:40:33;;;;;;;10.55;6.00;;;;;;;-0.01;68.84;101856.28;5109221;28;20106;-73
2023/02/05 00:42:58;;;;;;;9.80;5.32;;;;;;;-0.08;68.56;101837.09;5103113;27;20020;-71
2023/02/05 00:45:24;;;;;;;9.52;6.18;;;;;;;0.02;68.21;101848.31;5089604;27;20505;-71
2023/02/05 00:47:49;;;;;;;10.65;4.72;;;;;;;0.07;68.20;101854.38;5098247;28;20024;-72
2023/02/05 00:50:15;;;;;;;12.45;4.97;;;;;;;0.03;68.25;101850.06;5092597;28;20111;-72
2023/02/05 00:52:41;;;;;;;8.90;4.65;;;;;;;0.13;68.39;101858.66;5093308;28;20028;-67
2023/02/05 00:55:07;;;;;;;9.15;4.93;;;;;;;0.11;67.66;101855.19;5090079;28;20039;-73
2023/02/05 00:57:32;;;;;;;10.52;5.05;;;;;;;0.11;67.73;101863.97;5090642;27;20703;-72
2023/02/05 00:59:58;;;;;;;9.65;4.90;;;;;;;0.22;66.83;101869.88;5089607;28;20027;-72
2023/02/05 01:02:24;;;;;;;10.40;4.85;;;;;;;0.22;66.74;101869.03;5095851;28;20027;-72
2023/02/05 01:04:50;;;;;;;9.77;4.65;;;;;;;0.10;67.04;101853.44;5105077;28;20054;-73
2023/02/05 01:07:17;;;;;;;8.65;4.47;;;;;;;0.11;67.18;101852.53;5096952;28;20459;-72
2023/02/05 01:09:42;;;;;;;8.82;4.45;;;;;;;0.17;67.19;101865.59;5103116;28;20519;-71
2023/02/05 01:12:08;;;;;;;9.27;4.30;;;;;;;0.17;67.29;101862.97;5109530;28;20042;-72
2023/02/05 01:14:33;;;;;;;7.28;4.60;;;;;;;0.18;67.11;101862.94;5093474;27;20028;-73
2023/02/05 01:16:59;;;;;;;9.73;5.22;;;;;;;0.17;67.09;101863.84;5091482;27;20046;-73
2023/02/05 01:19:24;;;;;;;8.27;5.22;;;;;;;0.16;67.12;101858.59;5097945;28;20061;-73
2023/02/05 01:21:50;;;;;;;10.15;5.25;;;;;;;0.16;67.18;101856.81;5077773;28;20093;-72
2023/02/05 01:24:15;;;;;;;8.45;4.88;;;;;;;0.21;67.24;101864.63;5101346;28;20724;-72
2023/02/05 01:26:40;;;;;;;11.50;5.00;;;;;;;0.20;67.16;101866.41;5093070;28;20020;-72
2023/02/05 01:29:06;;;;;;;9.77;5.22;;;;;;;0.19;67.25;101863.81;5089997;28;20301;-73
2023/02/05 01:31:32;;;;;;;9.25;5.40;;;;;;;0.24;67.45;101867.22;5108776;27;20120;-73
2023/02/05 01:33:57;;;;;;;10.40;5.60;;;;;;;0.23;67.65;101865.47;5099647;27;20032;-72
2023/02/05 01:36:23;;;;;;;10.85;5.95;;;;;;;0.21;67.65;101862.88;5104128;28;20120;-73
2023/02/05 01:38:48;;;;;;;8.05;5.03;;;;;;;0.21;67.57;101869.91;5102446;27;20707;-67
2023/02/05 01:41:14;;;;;;;10.68;5.55;;;;;;;0.07;67.74;101861.41;5096962;28;20035;-67
2023/02/05 01:43:39;;;;;;;11.07;4.65;;;;;;;0.13;68.30;101872.72;5095715;27;20516;-67
2023/02/05 01:46:25;;;;;;;8.55;4.50;;;;;;;0.11;68.88;101871.00;5107207;28;20016;-67
2023/02/05 01:48:55;;;;;;;10.30;4.25;;;;;;;0.11;68.75;101871.88;5089479;27;20043;-67
2023/02/05 01:51:22;;;;;;;6.40;3.97;;;;;;;0.01;68.79;101854.50;5093807;27;20024;-67
2023/02/05 01:53:48;;;;;;;10.43;4.43;;;;;;;0.10;68.83;101862.25;5073797;28;20380;-67
2023/02/05 01:56:25;;;;;;;10.98;4.72;;;;;;;0.13;69.13;101867.47;5102993;27;20721;-67
2023/02/05 01:58:54;;;;;;;8.88;3.95;;;;;;;-0.03;69.49;101858.13;5070204;28;20040;-67
2023/02/05 02:01:20;;;;;;;7.03;3.85;;;;;;;-0.03;69.18;101861.59;5094046;27;20116;-66
2023/02/05 02:03:48;;;;;;;6.65;3.83;;;;;;;-0.06;68.97;101855.53;5103532;28;20069;-66
2023/02/05 02:06:13;;;;;;;7.05;3.60;;;;;;;0.11;68.80;101877.16;5089285;27;20043;-67
2023/02/05 02:08:39;;;;;;;6.00;3.42;;;;;;;0.09;69.23;101876.31;5099616;27;20039;-67
2023/02/05 02:11:08;;;;;;;5.82;3.47;;;;;;;0.03;69.39;101855.31;5100639;28;20039;-66
2023/02/05 02:13:35;;;;;;;6.50;3.53;;;;;;;0.19;69.90;101871.72;5093670;28;20039;-67
2023/02/05 02:16:02;;;;;;;5.47;3.60;;;;;;;0.19;70.45;101879.63;5104501;28;20055;-66
2023/02/05 02:18:28;;;;;;;6.97;4.15;;;;;;;0.13;70.50;101874.50;5081617;27;20028;-66
2023/02/05 02:21:18;;;;;;;7.82;3.58;;;;;;;0.21;70.83;101878.69;5101009;27;20032;-68
2023/02/05 02:24:09;;;;;;;7.95;3.80;;;;;;;0.24;70.87;101891.84;5103333;28;20454;-68
2023/02/05 02:27:04;;;;;;;7.10;3.50;;;;;;;0.23;70.79;101881.31;5098630;28;20038;-66
2023/02/05 02:29:44;;;;;;;6.85;3.70;;;;;;;0.23;71.17;101898.03;5087880;28;20040;-66
2023/02/05 02:32:24;;;;;;;6.75;3.83;;;;;;;0.27;71.09;101896.16;5091129;28;20032;-66
2023/02/05 02:35:06;;;;;;;6.72;3.67;;;;;;;0.16;71.15;101880.56;5089830;28;20089;-66
2023/02/05 02:37:44;;;;;;;6.78;3.22;;;;;;;0.24;71.00;101891.84;5099439;28;20108;-66
2023/02/05 02:40:17;;;;;;;7.45;3.50;;;;;;;0.18;71.33;101891.06;5101456;28;20035;-65
2023/02/05 02:43:05;;;;;;;5.45;2.95;;;;;;;-0.15;71.51;101838.13;5095071;28;20023;-66
2023/02/05 02:45:34;;;;;;;6.47;3.90;;;;;;;0.21;71.38;101901.56;5053679;28;20044;-67
2023/02/05 02:48:01;;;;;;;7.15;3.92;;;;;;;0.00;71.89;101873.88;5069830;28;20045;-66
2023/02/05 02:50:34;;;;;;;8.32;3.88;;;;;;;-0.02;71.64;101870.41;5094535;28;20372;-66
2023/02/05 02:53:10;;;;;;;5.30;3.22;;;;;;;0.05;72.13;101898.38;5094918;28;20479;-67
2023/02/05 02:55:41;;;;;;;6.85;4.22;;;;;;;-0.05;72.03;101870.44;5093650;28;20134;-67
2023/02/05 02:58:11;;;;;;;6.88;3.83;;;;;;;0.08;72.03;101908.88;5098354;28;20450;-67
2023/02/05 03:00:42;;;;;;;7.10;3.95;;;;;;;0.13;72.28;101916.69;5098189;28;20044;-67
2023/02/05 03:03:10;;;;;;;6.18;3.63;;;;;;;0.08;72.02;101914.13;5073335;28;20027;-67
2023/02/05 03:05:38;;;;;;;7.43;4.22;;;;;;;0.03;72.00;101906.31;5089012;28;20043;-66
2023/02/05 03:08:11;;;;;;;7.28;3.80;;;;;;;-0.07;71.90;101894.22;5079724;28;20036;-66
2023/02/05 03:10:52;;;;;;;9.88;4.10;;;;;;;0.00;72.10;101905.53;5086916;28;20024;-66
2023/02/05 03:13:18;;;;;;;6.80;4.05;;;;;;;-0.11;72.18;101900.44;5100428;28;20086;-66
2023/02/05 03:15:45;;;;;;;5.93;4.13;;;;;;;0.05;72.19;101919.47;5090079;28;20048;-66
2023/02/05 03:18:12;;;;;;;8.75;4.13;;;;;;;-0.07;72.45;101911.78;5093350;28;20016;-66
2023/02/05 03:20:44;;;;;;;8.20;4.25;;;;;;;-0.01;71.85;101923.09;5078853;28;20031;-67
2023/02/05 03:23:10;;;;;;;8.10;3.83;;;;;;;-0.08;71.64;101913.56;5095955;28;20019;-67
2023/02/05 03:25:35;;;;;;;7.70;3.42;;;;;;;-0.13;71.61;101904.00;5094592;28;20111;-67
2023/02/05 03:28:01;;;;;;;7.53;3.75;;;;;;;-0.16;71.05;101898.81;5105068;28;20027;-67
2023/02/05 03:30:38;;;;;;;8.23;4.30;;;;;;;-0.12;71.28;101917.16;5107302;28;20036;-67
2023/02/05 03:33:11;;;;;;;6.55;3.13;;;;;;;-0.21;70.56;101890.97;5089985;28;20027;-67
2023/02/05 03:36:03;;;;;;;5.78;3.38;;;;;;;-0.06;70.22;101924.94;5096569;27;20470;-68
2023/02/05 03:38:45;;;;;;;7.10;3.30;;;;;;;-0.28;69.66;101891.13;5099001;28;20028;-67
2023/02/05 03:41:13;;;;;;;6.13;3.53;;;;;;;-0.04;68.45;101941.63;5104969;28;20106;-66
2023/02/05 03:43:58;;;;;;;7.72;3.85;;;;;;;-0.10;68.17;101931.19;5099685;28;20016;-67
2023/02/05 03:46:38;;;;;;;4.90;3.05;;;;;;;-0.12;67.97;101946.16;5084665;28;20040;-72
2023/02/05 03:49:21;;;;;;;5.53;3.20;;;;;;;-0.13;67.73;101943.53;5081762;27;20072;-72
2023/02/05 03:52:16;;;;;;;7.45;3.58;;;;;;;-0.24;67.22;101935.84;5096183;27;20036;-66
2023/02/05 03:54:58;;;;;;;8.50;3.65;;;;;;;-0.26;67.60;101936.75;5083472;28;20479;-73
2023/02/05 03:57:31;;;;;;;5.57;3.13;;;;;;;-0.27;68.12;101937.66;5098591;28;20106;-73
2023/02/05 03:59:58;;;;;;;5.95;3.60;;;;;;;-0.30;68.77;101933.31;5095575;28;20071;-72
2023/02/05 04:02:23;;;;;;;9.07;4.30;;;;;;;-0.27;69.34;101937.66;5107253;28;20062;-67
2023/02/05 04:04:49;;;;;;;9.10;4.40;;;;;;;-0.27;70.18;101937.66;5090146;28;20055;-73
2023/02/05 04:07:14;;;;;;;7.55;4.88;;;;;;;-0.27;70.35;101940.28;5097753;27;20034;-72
2023/02/05 04:09:40;;;;;;;8.60;4.45;;;;;;;-0.33;70.59;101930.72;5100074;27;20032;-72
2023/02/05 04:12:06;;;;;;;7.80;3.90;;;;;;;-0.28;70.93;101943.84;5088016;28;20035;-73
2023/02/05 04:14:31;;;;;;;8.75;4.18;;;;;;;-0.27;70.81;101943.81;5106731;27;20537;-73
2023/02/05 04:16:56;;;;;;;7.07;4.05;;;;;;;-0.33;70.81;101932.50;5098190;28;20046;-73
2023/02/05 04:19:22;;;;;;;7.40;3.67;;;;;;;-0.30;70.42;101940.34;5083046;27;20026;-73
2023/02/05 04:21:47;;;;;;;7.97;4.20;;;;;;;-0.32;70.48;101950.06;5098716;27;20024;-71
2023/02/05 04:24:13;;;;;;;9.15;4.13;;;;;;;-0.34;70.66;101950.09;5095119;27;20063;-72
2023/02/05 04:26:38;;;;;;;7.88;4.50;;;;;;;-0.33;69.98;101956.22;5094839;28;20024;-73
2023/02/05 04:29:04;;;;;;;9.65;5.05;;;;;;;-0.37;70.03;101954.53;5077212;28;20019;-73
2023/02/05 04:31:29;;;;;;;11.07;5.10;;;;;;;-0.41;70.37;101958.13;5090456;28;20431;-74
2023/02/05 04:33:55;;;;;;;8.07;4.32;;;;;;;-0.45;70.49;101959.09;5105871;28;20388;-74
2023/02/05 04:36:20;;;;;;;8.63;4.72;;;;;;;-0.52;70.70;101953.03;5097436;28;20023;-73
2023/02/05 04:38:46;;;;;;;9.25;4.30;;;;;;;-0.47;70.44;101967.00;5106354;28;20035;-73
2023/02/05 04:41:11;;;;;;;7.93;3.80;;;;;;;-0.49;70.55;101962.63;5102948;28;20116;-72
2023/02/05 04:43:37;;;;;;;7.75;3.85;;;;;;;-0.48;70.26;101970.50;5110995;28;20019;-72
2023/02/05 04:46:10;;;;;;;9.90;3.92;;;;;;;-0.49;69.71;101973.19;5100839;28;20059;-73
2023/02/05 04:48:36;;;;;;;6.93;4.35;;;;;;;-0.53;68.66;101972.38;5096739;28;20027;-72
2023/02/05 04:51:11;;;;;;;5.95;3.58;;;;;;;-0.53;67.42;101958.31;5092586;28;20032;-72
2023/02/05 04:53:36;;;;;;;7.70;3.63;;;;;;;-0.51;66.45;101964.44;5099377;28;20106;-72
2023/02/05 04:56:05;;;;;;;6.00;3.78;;;;;;;-0.45;66.02;101972.25;5078509;28;20122;-73
2023/02/05 04:58:31;;;;;;;6.95;3.88;;;;;;;-0.42;65.80;101994.13;5089997;28;20035;-72
2023/02/05 05:00:56;;;;;;;7.45;3.83;;;;;;;-0.45;65.57;101996.81;5099632;27;20475;-66
2023/02/05 05:03:22;;;;;;;5.15;3.35;;;;;;;-0.51;65.72;101975.84;5085139;28;20034;-67
2023/02/05 05:05:47;;;;;;;7.03;3.70;;;;;;;-0.50;65.74;101988.13;5097343;28;21309;-73
2023/02/05 05:08:12;;;;;;;7.50;3.60;;;;;;;-0.45;65.66;101988.06;5097569;28;20466;-73
2023/02/05 05:10:38;;;;;;;7.28;3.90;;;;;;;-0.54;65.00;101969.75;5098912;28;20066;-73
2023/02/05 05:13:03;;;;;;;5.43;2.92;;;;;;;-0.51;64.96;101996.06;5093257;27;20023;-73
2023/02/05 05:15:29;;;;;;;8.45;3.45;;;;;;;-0.64;65.09;101973.44;5093581;28;20042;-66
2023/02/05 05:17:54;;;;;;;5.68;3.42;;;;;;;-0.63;64.43;101964.63;5101343;27;20031;-67
2023/02/05 05:20:20;;;;;;;6.40;3.20;;;;;;;-0.59;64.13;101976.84;5094484;27;20057;-67
2023/02/05 05:22:45;;;;;;;4.25;2.78;;;;;;;-0.64;63.39;101978.72;5084370;28;20040;-66
2023/02/05 05:25:11;;;;;;;5.38;3.10;;;;;;;-0.89;63.41;101945.75;5098605;28;20748;-66
2023/02/05 05:27:36;;;;;;;5.28;2.55;;;;;;;-0.71;62.85;101982.34;5102528;28;20039;-65
2023/02/05 05:30:02;;;;;;;5.35;2.65;;;;;;;-0.72;62.50;101986.72;5105228;28;20031;-66
2023/02/05 05:32:28;;;;;;;5.10;2.25;;;;;;;-0.76;62.35;101978.91;5091145;27;20028;-72
2023/02/05 05:34:55;;;;;;;10.25;2.85;;;;;;;-0.69;62.06;102005.13;5090090;28;20028;-72
2023/02/05 05:37:21;;;;;;;4.95;2.70;;;;;;;-0.72;61.46;101994.63;5097161;27;20110;-71
2023/02/05 05:45:15;;;;;;;7.05;4.00;;;;;;;-0.70;60.74;102036.75;5096654;28;20175;-72
2023/02/05 05:47:40;;;;;;;12.90;7.10;;;;;;;-0.73;61.11;102036.81;5097673;28;20106;-73
2023/02/05 05:50:05;;;;;;;13.15;5.88;;;;;;;-0.78;60.88;102033.34;5103370;28;20024;-72
2023/02/05 05:52:31;;;;;;;10.68;4.30;;;;;;;-0.76;60.89;102031.56;5096071;27;20114;-67
2023/02/05 05:54:56;;;;;;;5.60;3.28;;;;;;;-0.88;60.34;102005.41;5101967;28;20067;-67
2023/02/05 05:57:22;;;;;;;6.50;3.75;;;;;;;-0.81;60.67;102022.88;5105427;27;20490;-67
2023/02/05 05:59:47;;;;;;;7.68;3.70;;;;;;;-0.73;60.49;102042.94;5102636;28;20459;-67
2023/02/05 06:02:13;;;;;;;8.50;4.25;;;;;;;-0.80;60.25;102041.28;5096876;28;20035;-67
2023/02/05 06:04:38;;;;;;;12.02;5.25;;;;;;;-0.69;59.88;102051.66;5102407;27;20534;-73
2023/02/05 06:07:04;;;;;;;9.75;3.85;;;;;;;-0.81;59.69;102038.69;5076843;28;20027;-74
2023/02/05 06:09:29;;;;;;;5.97;3.45;;;;;;;-0.72;60.03;102064.88;5093651;28;20035;-73
2023/02/05 06:11:55;;;;;;;7.78;3.60;;;;;;;-0.87;59.46;102037.00;5100738;28;20118;-73
2023/02/05 06:14:20;;;;;;;2.95;2.17;;;;;;;-0.72;58.94;102056.97;5096683;28;20035;-73
2023/02/05 06:16:45;;;;;;;6.28;2.45;;;;;;;-0.72;58.64;102052.59;5091433;28;20044;-71
2023/02/05 06:19:11;;;;;;;4.65;2.60;;;;;;;-0.70;59.16;102053.44;5092386;28;20024;-71
2023/02/05 06:21:36;;;;;;;4.78;2.53;;;;;;;-0.76;59.15;102050.91;5096011;28;20023;-73
2023/02/05 06:24:02;;;;;;;2.83;2.10;;;;;;;-0.72;58.75;102063.13;5090175;28;20027;-73
2023/02/05 06:26:27;;;;;;;2.78;2.10;;;;;;;-0.77;58.60;102045.66;5090028;28;20103;-72
2023/02/05 06:28:56;;;;;;;4.40;2.80;;;;;;;-0.67;58.43;102060.44;5093363;28;20149;-65
2023/02/05 06:31:22;;;;;;;5.20;2.20;;;;;;;-0.64;57.77;102057.75;5095808;27;20395;-67
2023/02/05 06:33:47;;;;;;;7.70;2.95;;;;;;;-0.70;56.80;102052.56;5088775;28;20021;-66
2023/02/05 06:36:13;;;;;;;5.90;2.45;;;;;;;-0.59;56.46;102066.44;5089208;28;20031;-66
2023/02/05 06:38:38;;;;;;;4.20;2.20;;;;;;;-0.72;56.38;102055.22;5093015;27;20020;-66
2023/02/05 06:41:04;;;;;;;5.28;1.95;;;;;;;-0.71;56.66;102058.72;5098766;28;20480;-66
2023/02/05 06:43:29;;;;;;;4.15;2.25;;;;;;;-0.55;56.36;102086.59;5097215;28;20024;-66
2023/02/05 06:45:55;;;;;;;6.00;2.47;;;;;;;-0.71;56.81;102066.63;5092618;28;20106;-68
2023/02/05 06:48:20;;;;;;;5.45;2.78;;;;;;;-0.61;56.76;102097.22;5086676;28;20027;-67
2023/02/05 06:50:46;;;;;;;6.90;2.95;;;;;;;-0.68;56.65;102069.22;5072557;28;20039;-66
2023/02/05 06:53:11;;;;;;;6.07;2.72;;;;;;;-0.58;58.13;102089.28;5094271;28;20388;-67
2023/02/05 06:55:37;;;;;;;5.55;2.67;;;;;;;-0.55;58.12;102091.88;5095351;28;20106;-66
2023/02/05 06:58:03;;;;;;;4.95;2.80;;;;;;;-0.51;56.99;102085.66;5078698;28;20162;-73
2023/02/05 07:00:29;;;;;;;5.25;2.85;;;;;;;-0.49;57.57;102097.91;5096147;28;20027;-73
2023/02/05 07:02:55;;;;;;;4.60;2.67;;;;;;;-0.51;57.54;102098.84;5087709;28;20042;-73
2023/02/05 07:05:21;;;;;;;6.35;2.45;;;;;;;-0.50;57.38;102096.19;5093175;28;20042;-73
2023/02/05 07:07:46;;;;;;;4.50;2.58;;;;;;;-0.48;57.98;102107.53;5099058;28;20106;-73
2023/02/05 07:10:12;;;;;;;5.97;2.80;;;;;;;-0.43;56.92;102111.00;5108759;28;20035;-68
2023/02/05 07:12:37;;;;;;;4.47;2.42;;;;;;;-0.39;56.10;102098.63;5094163;28;20039;-67
2023/02/05 07:15:03;;;;;;;11.35;5.30;;;;;;;-0.32;56.16;102113.50;5096502;28;20040;-68
2023/02/05 07:17:28;;;;;;;14.93;6.50;;;;;;;-0.51;56.03;102086.50;5093246;28;20126;-67
2023/02/05 07:19:54;;;;;;;22.77;9.30;;;;;;;-0.50;56.60;102090.91;5073275;28;20055;-74
2023/02/05 07:22:19;;;;;;;20.52;8.30;;;;;;;-0.34;56.12;102128.44;5098727;28;20027;-74
2023/02/05 07:24:45;;;;;;;5.57;3.25;;;;;;;-0.28;55.70;102112.53;5096995;28;20028;-72
2023/02/05 07:27:10;;;;;;;5.22;2.83;;;;;;;-0.23;55.42;102118.59;5096174;28;20016;-73
2023/02/05 07:29:36;;;;;;;5.57;2.67;;;;;;;-0.19;55.08;102121.16;5098531;28;20032;-74
2023/02/05 07:32:01;;;;;;;4.72;3.15;;;;;;;-0.17;54.61;102114.13;5088764;28;20036;-74
2023/02/05 07:34:27;;;;;;;5.03;2.60;;;;;;;-0.16;54.79;102120.28;5090032;28;20076;-73
2023/02/05 07:36:52;;;;;;;4.72;2.83;;;;;;;-0.14;54.87;102134.28;5090265;28;20065;-72
2023/02/05 07:39:18;;;;;;;6.10;3.30;;;;;;;-0.11;54.42;102134.25;5108459;28;20030;-72
2023/02/05 07:41:44;;;;;;;4.55;2.65;;;;;;;-0.14;54.89;102137.81;5093727;28;20094;-73
2023/02/05 07:44:09;;;;;;;5.45;3.17;;;;;;;-0.19;54.27;102121.16;5092642;28;20027;-72
2023/02/05 07:46:35;;;;;;;6.95;2.75;;;;;;;-0.09;54.11;102143.88;5072724;28;20032;-72
2023/02/05 07:49:00;;;;;;;5.90;2.63;;;;;;;-0.08;53.98;102132.44;5098227;28;20026;-74
2023/02/05 07:51:26;;;;;;;8.23;2.30;;;;;;;-0.02;53.48;102145.53;5095070;28;20047;-72
2023/02/05 07:53:52;;;;;;;4.75;2.40;;;;;;;0.00;52.79;102141.09;5073610;28;20082;-74
2023/02/05 07:56:20;;;;;;;4.30;2.83;;;;;;;0.09;53.11;102137.44;5073075;28;20155;-72
2023/02/05 07:58:46;;;;;;;9.75;2.83;;;;;;;0.13;53.03;102135.63;5098277;28;20146;-72
2023/02/05 08:01:11;;;;;;;4.55;2.60;;;;;;;0.20;51.94;102130.22;5095420;28;20094;-72
2023/02/05 08:03:37;;;;;;;4.20;2.78;;;;;;;0.32;50.87;102130.00;5090227;28;20035;-72
2023/02/05 08:06:04;;;;;;;4.95;2.58;;;;;;;0.33;50.88;102130.88;5093384;28;20476;-73
2023/02/05 08:08:30;;;;;;;4.85;2.47;;;;;;;0.24;50.21;102116.09;5084574;28;20063;-67
2023/02/05 08:11:01;;;;;;;6.00;2.40;;;;;;;0.38;49.34;102108.78;5091188;28;20116;-72
2023/02/05 08:13:27;;;;;;;9.90;2.85;;;;;;;0.49;49.64;102116.53;5103908;28;20031;-72
2023/02/05 08:15:52;;;;;;;4.47;2.30;;;;;;;0.55;49.78;102113.78;5099700;28;20070;-72
2023/02/05 08:18:18;;;;;;;7.50;2.53;;;;;;;0.56;48.01;102111.13;5096560;28;20482;-73
2023/02/05 08:20:43;;;;;;;5.18;2.30;;;;;;;0.54;48.01;102110.25;5095146;27;20028;-73
2023/02/05 08:23:09;;;;;;;5.93;2.47;;;;;;;0.58;48.19;102117.22;5093622;28;20024;-72
2023/02/05 08:25:35;;;;;;;7.20;2.22;;;;;;;0.67;47.02;102105.63;5101703;27;20020;-73
2023/02/05 08:28:00;;;;;;;4.68;2.45;;;;;;;0.65;48.06;102107.41;5099663;28;20059;-73
2023/02/05 08:30:26;;;;;;;4.85;2.78;;;;;;;0.70;48.22;102116.09;5098704;27;20036;-74
2023/02/05 08:32:51;;;;;;;4.47;2.53;;;;;;;0.74;48.48;102116.03;5094589;28;20031;-72
2023/02/05 08:35:17;;;;;;;4.72;2.47;;;;;;;0.79;48.13;102123.88;5099314;27;20609;-73
2023/02/05 08:37:43;;;;;;;4.50;2.40;;;;;;;0.87;47.60;102127.25;5086769;28;20027;-74
2023/02/05 08:40:09;;;;;;;3.10;2.22;;;;;;;0.95;46.97;102130.59;5090896;28;20068;-73
2023/02/05 08:42:35;;;;;;;3.05;2.10;;;;;;;0.90;46.81;102117.47;5093961;28;20027;-74
2023/02/05 08:45:02;;;;;;;4.25;2.10;;;;;;;1.06;46.32;102131.28;5074878;28;20042;-73
2023/02/05 08:47:28;;;;;;;6.60;2.15;;;;;;;1.06;46.30;102134.75;5078938;28;20066;-73
2023/02/05 08:49:54;;;;;;;4.85;2.40;;;;;;;1.01;46.40;102126.06;5094919;27;20077;-73
2023/02/05 08:52:19;;;;;;;3.75;2.33;;;;;;;0.98;45.87;102112.94;5102647;28;20020;-72
2023/02/05 08:54:46;;;;;;;9.35;2.58;;;;;;;1.08;45.46;102132.09;5095708;28;20028;-72
2023/02/05 08:57:12;;;;;;;3.28;1.95;;;;;;;1.06;45.00;102121.56;5101669;27;20032;-74
2023/02/05 08:59:38;;;;;;;6.35;1.98;;;;;;;1.14;45.36;102126.69;5102710;27;20038;-73
2023/02/05 09:02:04;;;;;;;3.83;1.92;;;;;;;1.24;44.91;102133.53;5098258;27;20028;-72
2023/02/05 09:04:30;;;;;;;2.42;1.90;;;;;;;1.27;44.97;102125.53;5098366;28;20039;-73
2023/02/05 09:06:55;;;;;;;3.28;1.88;;;;;;;1.24;44.63;102130.88;5095055;28;20096;-73
2023/02/05 09:09:21;;;;;;;3.28;2.08;;;;;;;1.20;43.85;102127.44;5097778;28;20105;-73
2023/02/05 09:11:47;;;;;;;2.97;1.73;;;;;;;1.20;43.84;102124.81;5098051;28;20020;-73
2023/02/05 09:14:13;;;;;;;3.15;1.83;;;;;;;1.24;44.43;102120.31;5097044;27;20043;-73
2023/02/05 09:16:39;;;;;;;4.65;2.20;;;;;;;1.33;44.42;102134.22;5078062;28;20162;-67
2023/02/05 09:19:05;;;;;;;9.43;2.75;;;;;;;1.27;43.20;102122.88;5070217;28;20545;-68
2023/02/05 09:21:31;;;;;;;3.97;2.58;;;;;;;1.34;43.23;102133.31;5071491;28;20480;-67
2023/02/05 09:23:57;;;;;;;5.30;2.15;;;;;;;1.38;43.47;102134.09;5069730;28;20024;-67
2023/02/05 09:26:23;;;;;;;3.90;2.58;;;;;;;1.42;43.65;102133.16;5071224;28;20637;-67
2023/02/05 09:28:48;;;;;;;4.57;2.80;;;;;;;1.45;43.47;102149.78;5069909;28;20440;-67
2023/02/05 09:31:16;;;;;;;3.78;1.98;;;;;;;1.55;43.28;102153.97;5073117;28;20070;-67
2023/02/05 09:33:42;;;;;;;5.15;2.28;;;;;;;1.59;42.48;102149.50;5079508;28;20461;-67
2023/02/05 09:36:19;;;;;;;4.57;1.92;;;;;;;1.29;42.33;102092.88;5079392;28;20024;-68
2023/02/05 09:38:45;;;;;;;2.25;1.70;;;;;;;1.56;41.81;102137.22;5088554;28;20024;-68
2023/02/05 09:41:14;;;;;;;4.38;2.40;;;;;;;1.68;41.88;102152.78;5077175;28;20541;-68
2023/02/05 09:44:03;;;;;;;4.35;2.40;;;;;;;1.62;41.00;102147.63;5078049;28;20036;-67
2023/02/05 09:46:38;;;;;;;4.03;2.58;;;;;;;1.76;41.00;102161.44;5074723;28;20475;-69
2023/02/05 09:49:18;;;;;;;2.70;1.73;;;;;;;1.76;41.81;102152.63;5072600;28;20028;-68
2023/02/05 09:51:51;;;;;;;3.22;1.88;;;;;;;1.82;42.07;102145.44;5069864;28;20031;-69
2023/02/05 09:54:21;;;;;;;7.88;2.92;;;;;;;1.84;42.39;102143.63;5073460;28;20358;-68
2023/02/05 09:56:48;;;;;;;4.65;1.95;;;;;;;1.77;40.83;102123.50;5076024;28;20067;-68
2023/02/05 09:59:17;;;;;;;2.75;2.00;;;;;;;1.93;40.94;102138.13;5073952;28;20047;-68
2023/02/05 10:02:00;;;;;;;4.95;2.47;;;;;;;1.89;40.47;102117.94;5080269;28;20036;-68
2023/02/05 10:04:27;;;;;;;4.78;2.20;;;;;;;2.01;40.48;102125.59;5072526;28;20036;-68
2023/02/05 10:07:11;;;;;;;5.43;2.58;;;;;;;2.00;41.73;102096.53;5084514;28;20089;-68
2023/02/05 10:10:00;;;;;;;3.38;1.92;;;;;;;2.27;40.99;102123.16;5072778;28;20070;-68
2023/02/05 10:12:32;;;;;;;4.72;2.53;;;;;;;2.40;41.22;102110.47;5069599;28;20052;-68
2023/02/05 10:15:15;;;;;;;3.47;1.95;;;;;;;2.55;39.72;102118.03;5084329;28;20499;-69
2023/02/05 10:17:56;;;;;;;2.57;1.73;;;;;;;2.61;39.35;102117.00;5082198;28;20076;-69
2023/02/05 10:20:42;;;;;;;4.03;1.90;;;;;;;2.63;39.38;102112.50;5091366;28;20857;-69
2023/02/05 10:23:14;;;;;;;2.28;1.70;;;;;;;2.70;39.37;102114.09;5091003;28;20373;-68
2023/02/05 10:26:03;;;;;;;4.43;1.95;;;;;;;2.76;39.38;102120.09;5091774;28;20027;-68
2023/02/05 10:28:53;;;;;;;3.70;2.00;;;;;;;2.66;39.29;102118.59;5096691;28;20403;-68
2023/02/05 10:31:41;;;;;;;3.05;1.90;;;;;;;2.69;39.75;102115.88;5102907;27;20040;-68
2023/02/05 10:34:25;;;;;;;2.80;1.77;;;;;;;2.70;39.51;102104.34;5087794;28;20040;-68
2023/02/05 10:36:52;;;;;;;2.63;1.88;;;;;;;2.66;39.48;102102.72;5070501;28;20578;-68
2023/02/05 10:39:20;;;;;;;3.35;2.00;;;;;;;2.67;40.39;102108.88;5096619;28;20483;-68
2023/02/05 10:42:00;;;;;;;3.15;1.85;;;;;;;2.41;40.53;102046.00;5076747;28;21000;-68
2023/02/05 10:44:33;;;;;;;3.55;2.13;;;;;;;2.78;40.27;102102.38;5096690;28;20028;-69
2023/02/05 10:47:11;;;;;;;4.95;2.72;;;;;;;2.85;40.23;102101.31;5097276;28;20050;-68
2023/02/05 10:50:13;;;;;;;4.00;2.17;;;;;;;2.94;40.02;102098.41;5084727;28;20085;-68
2023/02/05 10:52:38;;;;;;;4.55;2.08;;;;;;;2.98;39.48;102105.34;5074594;28;20031;-73
2023/02/05 10:55:04;;;;;;;4.97;2.20;;;;;;;2.95;38.12;102084.22;5101353;28;20032;-73
2023/02/05 10:57:33;;;;;;;5.32;2.00;;;;;;;2.93;39.08;102075.44;5100691;28;20028;-72
2023/02/05 11:00:04;;;;;;;3.20;2.03;;;;;;;3.04;38.69;102083.09;5098761;27;20047;-68
2023/02/05 11:02:38;;;;;;;2.85;2.00;;;;;;;3.06;37.87;102065.38;5096111;28;20510;-68
2023/02/05 11:05:13;;;;;;;2.95;1.98;;;;;;;3.09;39.11;102095.28;5093495;27;20044;-68
2023/02/05 11:07:48;;;;;;;3.45;2.20;;;;;;;3.13;38.55;102093.44;5102207;28;20430;-68
2023/02/05 11:10:17;;;;;;;2.65;2.08;;;;;;;3.13;39.32;102099.59;5089716;28;20483;-68
2023/02/05 11:12:47;;;;;;;4.32;2.28;;;;;;;3.08;39.49;102095.34;5070269;28;20024;-72
2023/02/05 11:15:25;;;;;;;3.22;2.05;;;;;;;3.08;39.02;102090.03;5094773;28;20722;-72
2023/02/05 11:17:57;;;;;;;3.15;1.88;;;;;;;3.11;38.42;102080.22;5072894;28;20059;-73
2023/02/05 11:20:28;;;;;;;4.35;2.50;;;;;;;3.02;39.75;102095.50;5104571;28;20047;-72
2023/02/05 11:23:17;;;;;;;4.13;2.20;;;;;;;3.10;38.96;102093.53;5106772;28;20020;-74
2023/02/05 11:25:50;;;;;;;3.13;2.10;;;;;;;2.97;39.71;102089.47;5096443;28;20058;-74
2023/02/05 11:28:26;;;;;;;4.90;2.90;;;;;;;3.02;38.90;102088.44;5104980;28;20060;-72
2023/02/05 11:30:52;;;;;;;3.53;1.92;;;;;;;3.01;39.12;102078.75;5102618;28;20039;-73
2023/02/05 11:33:26;;;;;;;2.97;2.13;;;;;;;3.03;39.16;102076.06;5100960;28;20369;-73
2023/02/05 11:36:06;;;;;;;3.15;2.70;;;;;;;3.02;39.39;102079.59;5098780;28;20067;-73
2023/02/05 11:38:46;;;;;;;6.10;3.72;;;;;;;3.01;39.20;102062.84;5091827;28;20032;-74
2023/02/05 11:41:24;;;;;;;3.33;2.17;;;;;;;3.01;39.05;102061.97;5094119;28;20035;-73
2023/02/05 11:43:51;;;;;;;3.97;2.70;;;;;;;3.05;39.15;102063.63;5092947;28;20685;-73